createdAt,value
2019-02-17T00:02:04.555Z,101800.08
2019-02-17T00:04:33.892Z,101788.13
2019-02-17T00:07:03.275Z,101793.86
2019-02-17T00:09:34.167Z,101790.88
2019-02-17T00:12:03.507Z,101787.47
2019-02-17T00:14:32.874Z,101795.73
2019-02-17T00:17:03.924Z,101790.14
2019-02-17T00:19:33.374Z,101794.01
2019-02-17T00:22:02.712Z,101793.67
2019-02-17T00:24:32.086Z,101791.20
2019-02-17T00:27:01.432Z,101788.70
2019-02-17T00:29:30.798Z,101794.70
2019-02-17T00:32:00.134Z,101795.95
2019-02-17T00:34:29.505Z,101792.09
2019-02-17T00:36:58.847Z,101793.33
2019-02-17T00:39:28.215Z,101789.40
2019-02-17T00:41:57.700Z,101797.59
2019-02-17T00:44:27.064Z,101795.42
2019-02-17T00:46:56.476Z,101793.61
2019-02-17T00:49:26.519Z,101793.98
2019-02-17T00:51:55.858Z,101790.81
2019-02-17T00:54:25.735Z,101788.09
2019-02-17T00:56:55.078Z,101788.95
2019-02-17T00:59:24.442Z,101788.99
2019-02-17T01:01:53.787Z,101785.52
2019-02-17T01:04:23.531Z,101784.66
2019-02-17T01:06:52.874Z,101784.95
2019-02-17T01:09:22.830Z,101783.55
2019-02-17T01:11:52.170Z,101782.50
2019-02-17T01:14:21.537Z,101786.18
2019-02-17T01:16:50.883Z,101780.84
2019-02-17T01:19:20.244Z,101783.30
2019-02-17T01:21:49.609Z,101776.28
2019-02-17T01:24:18.998Z,101777.39
2019-02-17T01:26:48.343Z,101782.91
2019-02-17T01:29:20.436Z,101785.30
2019-02-17T01:31:48.741Z,101784.44
2019-02-17T01:34:18.121Z,101777.11
2019-02-17T01:36:47.458Z,101785.73
2019-02-17T01:39:16.814Z,101783.71
2019-02-17T01:41:46.149Z,101784.77
2019-02-17T01:44:15.511Z,101786.70
2019-02-17T01:46:44.851Z,101792.51
2019-02-17T01:49:14.214Z,101795.73
2019-02-17T01:51:43.549Z,101792.00
2019-02-17T01:54:12.913Z,101794.70
2019-02-17T01:56:42.257Z,101808.97
2019-02-17T01:59:11.629Z,101812.55
2019-02-17T02:01:40.959Z,101809.20
2019-02-17T02:04:10.336Z,101811.42
2019-02-17T02:06:39.677Z,101803.80
2019-02-17T02:09:09.713Z,101802.52
2019-02-17T02:11:39.045Z,101800.15
2019-02-17T02:14:08.409Z,101798.83
2019-02-17T02:16:38.109Z,101800.43
2019-02-17T02:19:07.476Z,101803.74
2019-02-17T02:21:36.833Z,101809.34
2019-02-17T02:24:06.208Z,101806.91
2019-02-17T02:26:35.546Z,101813.36
2019-02-17T02:29:04.921Z,101810.75
2019-02-17T02:31:34.254Z,101805.52
2019-02-17T02:34:03.617Z,101807.28
2019-02-17T02:36:32.952Z,101803.84
2019-02-17T02:39:02.335Z,101801.69
2019-02-17T02:41:34.675Z,101807.73
2019-02-17T02:44:02.821Z,101813.75
2019-02-17T02:46:32.164Z,101813.23
2019-02-17T02:49:01.522Z,101811.42
2019-02-17T02:51:30.892Z,101814.13
2019-02-17T02:54:00.257Z,101810.78
2019-02-17T02:56:29.619Z,101816.88
2019-02-17T02:58:58.951Z,101817.77
2019-02-17T03:01:28.328Z,101818.71
2019-02-17T03:03:57.662Z,101826.02
2019-02-17T03:06:28.659Z,101823.06
2019-02-17T03:08:58.007Z,101827.41
2019-02-17T03:11:27.865Z,101833.42
2019-02-17T03:13:57.150Z,101827.05
2019-02-17T03:16:26.508Z,101830.08
2019-02-17T03:18:55.839Z,101826.72
2019-02-17T03:21:25.713Z,101831.89
2019-02-17T03:23:55.047Z,101836.18
2019-02-17T03:26:24.728Z,101834.89
2019-02-17T03:28:54.064Z,101841.38
2019-02-17T03:31:23.893Z,101837.08
2019-02-17T03:33:53.481Z,101840.59
2019-02-17T03:36:22.850Z,101847.08
2019-02-17T03:38:52.194Z,101852.64
2019-02-17T03:41:21.559Z,101855.65
2019-02-17T03:43:50.975Z,101845.33
2019-02-17T03:46:21.145Z,101850.05
2019-02-17T03:48:50.482Z,101850.93
2019-02-17T03:51:19.910Z,101845.76
2019-02-17T03:53:49.243Z,101855.62
2019-02-17T03:56:18.610Z,101855.22
2019-02-17T03:58:47.946Z,101855.25
2019-02-17T04:01:17.314Z,101855.70
2019-02-17T04:03:46.731Z,101860.37
2019-02-17T04:06:16.109Z,101860.81
2019-02-17T04:08:45.436Z,101867.63
2019-02-17T04:11:14.802Z,101857.80
2019-02-17T04:13:44.141Z,101864.67
2019-02-17T04:16:13.501Z,101863.78
2019-02-17T04:18:42.837Z,101852.20
2019-02-17T04:21:12.271Z,101856.45
2019-02-17T04:23:41.620Z,101855.94
2019-02-17T04:26:11.000Z,101858.50
2019-02-17T04:28:40.341Z,101865.34
2019-02-17T04:31:09.700Z,101862.66
2019-02-17T04:33:39.044Z,101862.64
2019-02-17T04:36:08.419Z,101863.09
2019-02-17T04:38:37.756Z,101861.84
2019-02-17T04:41:07.121Z,101852.91
2019-02-17T04:43:36.452Z,101860.70
2019-02-17T04:46:05.820Z,101865.00
2019-02-17T04:48:35.153Z,101857.31
2019-02-17T04:51:04.522Z,101859.52
2019-02-17T04:53:33.850Z,101854.34
2019-02-17T04:56:03.233Z,101860.37
2019-02-17T04:58:32.580Z,101859.99
2019-02-17T05:01:01.932Z,101857.03
2019-02-17T05:03:31.317Z,101858.70
2019-02-17T05:06:00.686Z,101866.41
2019-02-17T05:08:30.013Z,101869.38
2019-02-17T05:10:59.457Z,101865.89
2019-02-17T05:13:28.827Z,101868.48
2019-02-17T05:15:58.168Z,101868.06
2019-02-17T05:18:27.504Z,101862.90
2019-02-17T05:20:56.841Z,101858.98
2019-02-17T05:23:26.201Z,101867.16
2019-02-17T05:25:55.541Z,101867.56
2019-02-17T05:28:24.907Z,101869.66
2019-02-17T05:30:54.242Z,101875.27
2019-02-17T05:33:23.614Z,101876.09
2019-02-17T05:35:53.497Z,101877.74
2019-02-17T05:38:22.891Z,101878.20
2019-02-17T05:40:52.199Z,101873.48
2019-02-17T05:43:21.576Z,101873.98
2019-02-17T05:45:50.907Z,101873.57
2019-02-17T05:48:20.272Z,101874.51
2019-02-17T05:50:49.876Z,101878.03
2019-02-17T05:53:19.408Z,101890.52
2019-02-17T05:55:49.611Z,101893.48
2019-02-17T05:58:18.992Z,101894.34
2019-02-17T06:00:48.401Z,101896.01
2019-02-17T06:03:17.779Z,101899.92
2019-02-17T06:05:47.179Z,101906.34
2019-02-17T06:08:16.550Z,101901.66
2019-02-17T06:10:45.881Z,101904.68
2019-02-17T06:13:15.268Z,101907.64
2019-02-17T06:15:44.590Z,101905.99
2019-02-17T06:18:14.019Z,101908.59
2019-02-17T06:20:43.344Z,101912.03
2019-02-17T06:23:13.376Z,101921.87
2019-02-17T06:25:42.716Z,101921.88
2019-02-17T06:28:12.074Z,101925.31
2019-02-17T06:30:41.416Z,101930.02
2019-02-17T06:33:10.778Z,101922.73
2019-02-17T06:35:40.152Z,101925.71
2019-02-17T06:38:09.509Z,101921.44
2019-02-17T06:40:38.847Z,101918.42
2019-02-17T06:43:08.205Z,101925.25
2019-02-17T06:45:37.538Z,101926.07
2019-02-17T06:48:06.907Z,101926.03
2019-02-17T06:50:36.244Z,101924.72
2019-02-17T06:53:05.597Z,101919.05
2019-02-17T06:55:45.429Z,101929.33
2019-02-17T06:58:14.793Z,101932.68
2019-02-17T07:00:45.075Z,101928.84
2019-02-17T07:03:14.583Z,101930.95
2019-02-17T07:05:45.582Z,101934.36
2019-02-17T07:08:15.029Z,101938.17
2019-02-17T07:10:44.344Z,101943.67
2019-02-17T07:13:13.782Z,101946.59
2019-02-17T07:15:43.134Z,101945.59
2019-02-17T07:18:12.501Z,101939.08
2019-02-17T07:20:41.843Z,101941.17
2019-02-17T07:23:11.233Z,101946.19
2019-02-17T07:25:40.534Z,101951.67
2019-02-17T07:28:09.902Z,101943.37
2019-02-17T07:30:39.238Z,101944.95
2019-02-17T07:33:08.640Z,101944.39
2019-02-17T07:35:37.947Z,101939.41
2019-02-17T07:38:07.310Z,101941.91
2019-02-17T07:40:36.642Z,101946.06
2019-02-17T07:43:06.026Z,101942.88
2019-02-17T07:45:35.371Z,101943.92
2019-02-17T07:48:04.754Z,101948.63
2019-02-17T07:50:34.110Z,101932.54
2019-02-17T07:53:03.447Z,101936.02
2019-02-17T07:55:32.818Z,101930.69
2019-02-17T07:58:02.140Z,101933.08
2019-02-17T08:00:31.502Z,101928.98
2019-02-17T08:03:00.833Z,101934.87
2019-02-17T08:05:30.194Z,101932.64
2019-02-17T08:07:59.527Z,101929.91
2019-02-17T08:10:28.893Z,101928.05
2019-02-17T08:12:58.223Z,101931.44
2019-02-17T08:15:27.617Z,101925.97
2019-02-17T08:17:56.934Z,101930.02
2019-02-17T08:20:26.450Z,101925.31
2019-02-17T08:22:55.782Z,101931.10
2019-02-17T08:25:25.638Z,101925.27
2019-02-17T08:27:54.964Z,101922.03
2019-02-17T08:30:24.323Z,101921.67
2019-02-17T08:32:53.648Z,101927.16
2019-02-17T08:35:23.479Z,101915.09
2019-02-17T08:37:52.821Z,101916.87
2019-02-17T08:40:22.665Z,101913.55
2019-02-17T08:42:51.990Z,101909.76
2019-02-17T08:45:21.365Z,101916.69
2019-02-17T08:47:50.698Z,101899.25
2019-02-17T08:50:20.281Z,101900.77
2019-02-17T08:52:49.570Z,101903.56
2019-02-17T08:55:18.941Z,101899.75
2019-02-17T08:57:48.278Z,101904.95
2019-02-17T09:00:17.639Z,101899.59
2019-02-17T09:02:46.975Z,101894.95
2019-02-17T09:05:16.328Z,101894.37
2019-02-17T09:07:45.667Z,101897.13
2019-02-17T09:10:15.033Z,101892.32
2019-02-17T09:12:44.373Z,101898.53
2019-02-17T09:15:13.731Z,101894.28
2019-02-17T09:17:43.073Z,101896.27
2019-02-17T09:20:12.440Z,101892.34
2019-02-17T09:22:41.774Z,101893.69
2019-02-17T09:25:11.813Z,101897.23
2019-02-17T09:27:41.184Z,101898.47
2019-02-17T09:30:15.393Z,101891.70
2019-02-17T09:32:44.737Z,101894.28
2019-02-17T09:35:14.111Z,101896.86
2019-02-17T09:37:43.458Z,101896.20
2019-02-17T09:40:13.167Z,101899.41
2019-02-17T09:42:42.510Z,101903.95
2019-02-17T09:45:13.818Z,101903.82
2019-02-17T09:47:43.158Z,101898.61
2019-02-17T09:50:15.369Z,101898.78
2019-02-17T09:52:44.727Z,101904.91
2019-02-17T09:55:14.090Z,101906.69
2019-02-17T09:57:43.435Z,101905.22
2019-02-17T10:00:15.010Z,101903.14
2019-02-17T10:02:44.354Z,101899.92
2019-02-17T10:05:13.785Z,101901.95
2019-02-17T10:07:43.129Z,101899.94
2019-02-17T10:10:14.433Z,101900.85
2019-02-17T10:12:43.771Z,101900.38
2019-02-17T10:15:13.685Z,101892.39
2019-02-17T10:17:43.022Z,101893.25
2019-02-17T10:20:15.864Z,101892.50
2019-02-17T10:22:45.193Z,101894.28
2019-02-17T10:25:14.569Z,101884.68
2019-02-17T10:27:43.934Z,101892.67
2019-02-17T10:30:14.735Z,101887.36
2019-02-17T10:32:44.101Z,101885.89
2019-02-17T10:35:13.493Z,101892.09
2019-02-17T10:37:42.864Z,101892.29
2019-02-17T10:40:14.797Z,101889.73
2019-02-17T10:42:44.244Z,101885.20
2019-02-17T10:45:13.701Z,101883.91
2019-02-17T10:47:43.053Z,101880.65
2019-02-17T10:50:12.827Z,101884.30
2019-02-17T10:52:42.281Z,101879.03
2019-02-17T10:55:12.959Z,101885.98
2019-02-17T10:57:42.343Z,101882.30
2019-02-17T11:00:14.792Z,101866.83
2019-02-17T11:02:47.183Z,101866.74
2019-02-17T11:05:15.351Z,101871.39
2019-02-17T11:07:44.712Z,101855.72
2019-02-17T11:10:14.394Z,101856.38
2019-02-17T11:12:43.764Z,101851.31
2019-02-17T11:15:20.075Z,101857.08
2019-02-17T11:17:49.438Z,101849.63
2019-02-17T11:20:18.789Z,101843.45
2019-02-17T11:22:48.152Z,101842.28
2019-02-17T11:25:17.498Z,101836.02
2019-02-17T11:27:46.867Z,101839.84
2019-02-17T11:30:20.822Z,101835.72
2019-02-17T11:32:57.739Z,101831.22
2019-02-17T11:35:21.222Z,101838.08
2019-02-17T11:37:50.840Z,101826.59
2019-02-17T11:40:20.178Z,101828.62
2019-02-17T11:42:49.549Z,101826.52
2019-02-17T11:45:19.334Z,101829.90
2019-02-17T11:47:48.698Z,101828.20
2019-02-17T11:50:18.050Z,101825.64
2019-02-17T11:52:47.415Z,101821.36
2019-02-17T11:55:16.754Z,101828.38
2019-02-17T11:57:46.119Z,101823.72
2019-02-17T12:00:22.179Z,101822.19
2019-02-17T12:02:51.543Z,101821.16
2019-02-17T12:05:20.889Z,101822.04
2019-02-17T12:07:50.261Z,101825.67
2019-02-17T12:10:19.607Z,101816.08
2019-02-17T12:12:48.978Z,101817.33
2019-02-17T12:15:18.316Z,101816.75
2019-02-17T12:17:47.684Z,101817.17
2019-02-17T12:20:32.066Z,101809.02
2019-02-17T12:23:03.071Z,101801.03
2019-02-17T12:25:34.047Z,101802.98
2019-02-17T12:28:05.059Z,101806.44
2019-02-17T12:30:34.389Z,101797.62
2019-02-17T12:33:03.757Z,101800.43
2019-02-17T12:35:33.095Z,101801.85
2019-02-17T12:38:02.455Z,101797.86
2019-02-17T12:40:31.797Z,101794.02
2019-02-17T12:43:01.163Z,101797.92
2019-02-17T12:45:30.507Z,101798.89
2019-02-17T12:47:59.881Z,101791.12
2019-02-17T12:50:29.227Z,101788.27
2019-02-17T12:52:58.603Z,101782.52
2019-02-17T12:55:27.944Z,101780.71
2019-02-17T12:57:57.783Z,101778.59
2019-02-17T13:00:27.151Z,101780.25
2019-02-17T13:02:56.529Z,101775.05
2019-02-17T13:05:25.917Z,101773.50
2019-02-17T13:07:55.255Z,101776.58
2019-02-17T13:10:24.642Z,101773.79
2019-02-17T13:12:53.991Z,101774.22
2019-02-17T13:15:23.907Z,101779.31
2019-02-17T13:17:53.421Z,101772.70
2019-02-17T13:20:22.790Z,101766.56
2019-02-17T13:22:52.139Z,101768.47
2019-02-17T13:25:21.509Z,101759.89
2019-02-17T13:27:50.852Z,101760.09
2019-02-17T13:30:22.633Z,101751.19
2019-02-17T13:32:51.964Z,101754.92
2019-02-17T13:35:21.322Z,101754.99
2019-02-17T13:37:50.661Z,101752.00
2019-02-17T13:40:20.102Z,101753.91
2019-02-17T13:42:49.443Z,101759.11
2019-02-17T13:45:18.815Z,101760.67
2019-02-17T13:47:48.154Z,101756.02
2019-02-17T13:50:17.700Z,101748.08
2019-02-17T13:52:47.043Z,101749.03
2019-02-17T13:55:16.416Z,101752.41
2019-02-17T13:57:46.052Z,101751.39
2019-02-17T14:00:19.811Z,101742.58
2019-02-17T14:02:49.157Z,101754.93
2019-02-17T14:05:18.522Z,101754.71
2019-02-17T14:07:47.867Z,101757.83
2019-02-17T14:10:17.234Z,101751.32
2019-02-17T14:12:46.572Z,101749.52
2019-02-17T14:15:19.588Z,101747.84
2019-02-17T14:17:48.936Z,101750.30
2019-02-17T14:20:18.311Z,101738.16
2019-02-17T14:22:47.650Z,101744.91
2019-02-17T14:25:17.040Z,101751.70
2019-02-17T14:27:46.368Z,101752.03
2019-02-17T14:30:16.784Z,101753.56
2019-02-17T14:32:46.123Z,101746.88
2019-02-17T14:35:15.490Z,101747.34
2019-02-17T14:37:44.833Z,101744.67
2019-02-17T14:40:14.535Z,101743.45
2019-02-17T14:42:43.881Z,101741.31
2019-02-17T14:45:17.059Z,101741.61
2019-02-17T14:47:46.415Z,101746.06
2019-02-17T14:50:15.787Z,101742.50
2019-02-17T14:52:45.130Z,101737.57
2019-02-17T14:55:14.502Z,101738.87
2019-02-17T14:57:43.842Z,101740.70
2019-02-17T15:00:14.665Z,101735.73
2019-02-17T15:02:43.993Z,101733.18
2019-02-17T15:05:13.362Z,101735.73
2019-02-17T15:07:42.708Z,101742.12
2019-02-17T15:10:13.203Z,101733.73
2019-02-17T15:12:42.547Z,101733.72
2019-02-17T15:15:13.259Z,101741.05
2019-02-17T15:17:42.594Z,101737.50
2019-02-17T15:20:23.721Z,101736.32
2019-02-17T15:22:53.061Z,101739.61
2019-02-17T15:25:22.623Z,101736.70
2019-02-17T15:27:51.971Z,101738.47
2019-02-17T15:30:21.401Z,101735.70
2019-02-17T15:32:50.767Z,101735.13
2019-02-17T15:35:22.332Z,101733.39
2019-02-17T15:37:51.141Z,101727.45
2019-02-17T15:40:20.814Z,101730.33
2019-02-17T15:42:50.145Z,101731.50
2019-02-17T15:45:19.525Z,101735.14
2019-02-17T15:47:48.873Z,101729.91
2019-02-17T15:50:18.243Z,101729.67
2019-02-17T15:52:47.602Z,101734.06
2019-02-17T15:55:16.938Z,101727.42
2019-02-17T15:57:46.309Z,101728.13
2019-02-17T16:00:17.755Z,101727.33
2019-02-17T16:02:47.116Z,101733.58
2019-02-17T16:05:16.468Z,101730.83
2019-02-17T16:07:45.825Z,101731.00
2019-02-17T16:10:16.401Z,101729.36
2019-02-17T16:12:45.767Z,101727.98
2019-02-17T16:15:20.880Z,101728.97
2019-02-17T16:17:50.244Z,101736.20
2019-02-17T16:20:19.580Z,101739.98
2019-02-17T16:22:48.944Z,101745.31
2019-02-17T16:25:18.277Z,101746.58
2019-02-17T16:27:47.647Z,101745.19
2019-02-17T16:30:23.431Z,101748.77
2019-02-17T16:32:52.799Z,101748.16
2019-02-17T16:35:22.139Z,101748.34
2019-02-17T16:37:51.579Z,101749.63
2019-02-17T16:40:20.917Z,101746.69
2019-02-17T16:42:50.284Z,101748.92
2019-02-17T16:45:19.617Z,101747.98
2019-02-17T16:47:49.151Z,101748.83
2019-02-17T16:50:23.635Z,101750.84
2019-02-17T16:52:53.338Z,101751.73
2019-02-17T16:55:22.681Z,101755.37
2019-02-17T16:57:52.046Z,101758.41
2019-02-17T17:00:25.308Z,101762.08
2019-02-17T17:02:57.744Z,101760.47
2019-02-17T17:05:27.067Z,101763.97
2019-02-17T17:07:56.431Z,101767.91
2019-02-17T17:10:25.849Z,101766.67
2019-02-17T17:12:55.482Z,101768.63
2019-02-17T17:15:24.821Z,101764.51
2019-02-17T17:17:54.635Z,101764.81
2019-02-17T17:20:23.979Z,101763.42
2019-02-17T17:22:53.350Z,101765.52
2019-02-17T17:25:22.696Z,101766.69
2019-02-17T17:27:52.439Z,101766.69
2019-02-17T17:30:21.768Z,101767.30
2019-02-17T17:32:51.136Z,101764.97
2019-02-17T17:35:20.792Z,101762.94
2019-02-17T17:37:50.158Z,101763.95
2019-02-17T17:40:19.512Z,101763.27
2019-02-17T17:42:48.873Z,101759.39
2019-02-17T17:45:21.991Z,101760.77
2019-02-17T17:47:51.382Z,101757.23
2019-02-17T17:50:20.785Z,101757.14
2019-02-17T17:52:50.156Z,101754.78
2019-02-17T17:55:19.519Z,101755.13
2019-02-17T17:57:48.890Z,101753.21
2019-02-17T18:00:20.731Z,101750.73
2019-02-17T18:02:50.091Z,101754.72
2019-02-17T18:05:19.455Z,101752.37
2019-02-17T18:07:48.827Z,101751.66
2019-02-17T18:10:18.207Z,101751.67
2019-02-17T18:12:47.594Z,101753.39
2019-02-17T18:15:18.295Z,101752.26
2019-02-17T18:17:54.648Z,101750.76
2019-02-17T18:20:18.786Z,101746.22
2019-02-17T18:22:48.150Z,101741.09
2019-02-17T18:25:17.532Z,101743.56
2019-02-17T18:27:46.910Z,101752.96
2019-02-17T18:30:22.642Z,101747.51
2019-02-17T18:32:52.045Z,101749.61
2019-02-17T18:35:21.385Z,101751.89
2019-02-17T18:37:50.838Z,101750.18
2019-02-17T18:40:20.586Z,101758.53
2019-02-17T18:42:49.936Z,101759.03
2019-02-17T18:45:19.318Z,101768.72
2019-02-17T18:47:48.651Z,101764.02
2019-02-17T18:50:18.856Z,101765.59
2019-02-17T18:52:48.208Z,101764.02
2019-02-17T18:55:17.578Z,101760.77
2019-02-17T18:57:50.864Z,101754.38
2019-02-17T19:00:25.590Z,101752.30
2019-02-17T19:02:54.938Z,101751.41
2019-02-17T19:05:32.045Z,101752.05
2019-02-17T19:07:56.833Z,101750.83
2019-02-17T19:10:26.215Z,101744.98
2019-02-17T19:12:55.568Z,101747.01
2019-02-17T19:15:24.946Z,101752.68
2019-02-17T19:17:54.284Z,101752.33
2019-02-17T19:20:31.458Z,101755.55
2019-02-17T19:23:01.485Z,101754.50
2019-02-17T19:25:30.864Z,101761.26
2019-02-17T19:28:00.211Z,101753.91
2019-02-17T19:30:29.592Z,101749.30
2019-02-17T19:32:58.947Z,101751.89
2019-02-17T19:35:28.322Z,101754.34
2019-02-17T19:37:57.669Z,101748.39
2019-02-17T19:40:29.891Z,101749.45
2019-02-17T19:42:59.237Z,101752.06
2019-02-17T19:45:28.616Z,101750.91
2019-02-17T19:47:57.954Z,101753.14
2019-02-17T19:50:27.602Z,101751.52
2019-02-17T19:52:56.949Z,101753.09
2019-02-17T19:55:26.322Z,101749.50
2019-02-17T19:57:55.674Z,101749.69
2019-02-17T20:00:26.094Z,101748.28
2019-02-17T20:03:01.605Z,101757.83
2019-02-17T20:05:32.614Z,101753.52
2019-02-17T20:08:01.967Z,101761.70
2019-02-17T20:10:31.345Z,101768.23
2019-02-17T20:13:02.325Z,101766.03
2019-02-17T20:15:33.354Z,101758.19
2019-02-17T20:18:02.706Z,101764.11
2019-02-17T20:20:32.079Z,101762.58
2019-02-17T20:23:02.709Z,101762.50
2019-02-17T20:25:32.089Z,101761.09
2019-02-17T20:28:01.446Z,101756.56
2019-02-17T20:30:30.802Z,101763.91
2019-02-17T20:33:00.166Z,101763.90
2019-02-17T20:35:29.523Z,101757.34
2019-02-17T20:37:58.867Z,101754.30
2019-02-17T20:40:28.241Z,101750.48
2019-02-17T20:42:57.587Z,101749.77
2019-02-17T20:45:26.953Z,101749.45
2019-02-17T20:47:56.298Z,101747.41
2019-02-17T20:50:26.088Z,101746.59
2019-02-17T20:52:55.439Z,101751.87
2019-02-17T20:55:25.168Z,101748.42
2019-02-17T20:57:54.543Z,101751.87
2019-02-17T21:00:25.713Z,101754.41
2019-02-17T21:02:55.144Z,101748.86
2019-02-17T21:05:24.591Z,101755.22
2019-02-17T21:07:54.195Z,101752.67
2019-02-17T21:10:23.927Z,101754.34
2019-02-17T21:12:53.303Z,101748.69
2019-02-17T21:15:22.921Z,101750.86
2019-02-17T21:17:52.288Z,101746.59
2019-02-17T21:20:22.406Z,101751.77
2019-02-17T21:22:53.073Z,101748.00
2019-02-17T21:25:22.600Z,101747.33
2019-02-17T21:27:51.975Z,101741.68
2019-02-17T21:30:21.322Z,101740.01
2019-02-17T21:32:50.696Z,101741.87
2019-02-17T21:35:20.055Z,101745.19
2019-02-17T21:37:49.428Z,101748.47
2019-02-17T21:40:18.943Z,101748.86
2019-02-17T21:42:48.315Z,101743.24
2019-02-17T21:45:17.666Z,101741.95
2019-02-17T21:47:47.035Z,101739.75
2019-02-17T21:50:16.384Z,101740.18
2019-02-17T21:52:45.761Z,101740.52
2019-02-17T21:55:15.287Z,101738.94
2019-02-17T21:57:44.670Z,101739.28
2019-02-17T22:00:19.918Z,101744.28
2019-02-17T22:02:49.319Z,101746.01
2019-02-17T22:05:18.831Z,101745.20
2019-02-17T22:07:48.198Z,101744.11
2019-02-17T22:10:20.890Z,101741.04
2019-02-17T22:12:51.257Z,101739.86
2019-02-17T22:15:22.314Z,101742.45
2019-02-17T22:17:51.698Z,101733.10
2019-02-17T22:20:21.044Z,101734.79
2019-02-17T22:22:50.493Z,101729.52
2019-02-17T22:25:19.842Z,101747.12
2019-02-17T22:27:49.219Z,101740.94
2019-02-17T22:30:18.577Z,101746.11
2019-02-17T22:32:47.959Z,101744.66
2019-02-17T22:35:17.330Z,101745.14
2019-02-17T22:37:46.701Z,101750.03
2019-02-17T22:40:16.218Z,101742.71
2019-02-17T22:42:45.590Z,101752.63
2019-02-17T22:45:15.104Z,101750.09
2019-02-17T22:47:44.475Z,101747.98
2019-02-17T22:50:14.465Z,101738.61
2019-02-17T22:52:44.974Z,101737.47
2019-02-17T22:55:14.602Z,101725.84
2019-02-17T22:57:44.035Z,101730.67
2019-02-17T23:00:19.481Z,101730.28
2019-02-17T23:02:48.856Z,101726.84
2019-02-17T23:05:18.191Z,101734.16
2019-02-17T23:07:47.577Z,101738.52
2019-02-17T23:10:16.919Z,101736.76
2019-02-17T23:12:46.286Z,101742.93
2019-02-17T23:15:15.633Z,101742.11
2019-02-17T23:17:45.001Z,101736.84
2019-02-17T23:20:14.347Z,101737.72
2019-02-17T23:22:43.718Z,101741.26
2019-02-17T23:25:13.058Z,101736.84
2019-02-17T23:27:42.426Z,101747.30
2019-02-17T23:30:12.139Z,101751.34
2019-02-17T23:32:41.526Z,101751.43
2019-02-17T23:35:11.466Z,101748.14
2019-02-17T23:37:40.844Z,101744.86
2019-02-17T23:40:11.256Z,101741.11
2019-02-17T23:42:40.600Z,101743.30
2019-02-17T23:45:13.707Z,101741.58
2019-02-17T23:47:43.060Z,101732.18
2019-02-17T23:50:12.152Z,101739.92
2019-02-17T23:52:40.778Z,101734.22
2019-02-17T23:55:09.893Z,101727.77
2019-02-17T23:57:38.661Z,101727.45
